Time;durP1;ratioP1;P1;durP2;ratioP2;P2;SDS_P1;SDS_P2;PMS_P1;PMS_P2;Temp;Humidity;BMP_temperature;BMP_pressure;BME280_temperature;BME280_humidity;BME280_pressure;Samples;Min_cycle;Max_cycle;Signal;HPM_P1;HPM_P2
2022/08/14 00:01:40;;;;;;;6.35;4.60;;;;;;;;;;5040432;28;20211;-74
2022/08/14 00:04:07;;;;;;;5.32;4.60;;;;;;;;;;5076098;28;20219;-74
2022/08/14 00:06:59;;;;;;;5.75;5.22;;;;;;;;;;5073852;28;20295;-74
2022/08/14 00:09:30;;;;;;;5.40;4.60;;;;;;;;;;5085178;28;20235;-74
2022/08/14 00:12:04;;;;;;;6.07;5.28;;;;;;;;;;5067624;28;20214;-74
2022/08/14 00:14:41;;;;;;;5.38;4.95;;;;;;;;;;5023345;28;20271;-74
2022/08/14 00:17:07;;;;;;;5.30;4.63;;;;;;;;;;5052736;28;20287;-73
2022/08/14 00:19:35;;;;;;;5.28;4.80;;;;;;;;;;5084845;28;20279;-74
2022/08/14 00:22:03;;;;;;;5.65;5.22;;;;;;;;;;5072644;28;20250;-75
2022/08/14 00:24:30;;;;;;;5.70;5.20;;;;;;;;;;5063237;28;20242;-73
2022/08/14 00:26:57;;;;;;;4.97;4.57;;;;;;;;;;5061473;28;20219;-74
2022/08/14 00:29:25;;;;;;;5.80;5.25;;;;;;;;;;5077878;28;20214;-74
2022/08/14 00:31:57;;;;;;;5.13;4.72;;;;;;;;;;5075304;28;20319;-75
2022/08/14 00:34:23;;;;;;;5.13;4.72;;;;;;;;;;5058509;28;20218;-74
2022/08/14 00:36:48;;;;;;;5.20;4.78;;;;;;;;;;5065472;28;20787;-74
2022/08/14 00:39:14;;;;;;;5.70;4.40;;;;;;;;;;5056491;28;20237;-74
2022/08/14 00:41:40;;;;;;;5.13;4.57;;;;;;;;;;5059406;28;20338;-74
2022/08/14 00:44:08;;;;;;;6.03;4.63;;;;;;;;;;5045810;28;20584;-75
2022/08/14 00:46:37;;;;;;;5.40;4.90;;;;;;;;;;5053982;28;20306;-75
2022/08/14 00:49:10;;;;;;;5.00;4.68;;;;;;;;;;5061981;28;20218;-74
2022/08/14 00:51:38;;;;;;;4.82;4.43;;;;;;;;;;5059638;28;20226;-74
2022/08/14 00:54:06;;;;;;;5.15;4.75;;;;;;;;;;5059847;28;20711;-77
2022/08/14 00:56:34;;;;;;;4.90;4.60;;;;;;;;;;5046124;28;20229;-73
2022/08/14 00:59:00;;;;;;;4.95;4.57;;;;;;;;;;5064378;28;20237;-75
2022/08/14 01:01:25;;;;;;;4.68;4.38;;;;;;;;;;5055743;28;20664;-77
2022/08/14 01:03:56;;;;;;;4.80;4.40;;;;;;;;;;5059586;28;20222;-75
2022/08/14 01:06:22;;;;;;;5.45;4.57;;;;;;;;;;5083951;28;20622;-76
2022/08/14 01:08:54;;;;;;;4.78;4.47;;;;;;;;;;5067207;28;20233;-76
2022/08/14 01:11:22;;;;;;;4.70;4.20;;;;;;;;;;5043655;28;20691;-76
2022/08/14 01:13:49;;;;;;;4.63;4.28;;;;;;;;;;5051388;28;20271;-75
2022/08/14 01:16:15;;;;;;;4.70;4.18;;;;;;;;;;5064253;28;20241;-75
2022/08/14 01:21:35;;;;;;;4.30;4.00;;;;;;;;;;5046960;28;20218;-75
2022/08/14 01:24:01;;;;;;;4.35;4.03;;;;;;;;;;5058511;28;20254;-75
2022/08/14 01:26:29;;;;;;;4.88;4.47;;;;;;;;;;5042969;28;20246;-75
2022/08/14 01:28:58;;;;;;;4.75;4.28;;;;;;;;;;5066575;28;20219;-75
2022/08/14 01:31:28;;;;;;;5.72;4.13;;;;;;;;;;5057295;28;20244;-74
2022/08/14 01:33:58;;;;;;;4.60;4.22;;;;;;;;;;5044238;28;20218;-75
2022/08/14 01:36:25;;;;;;;6.30;4.00;;;;;;;;;;5042765;28;20598;-75
2022/08/14 01:38:52;;;;;;;4.70;4.30;;;;;;;;;;5073737;28;20304;-75
2022/08/14 01:41:20;;;;;;;4.53;4.13;;;;;;;;;;5057514;28;20762;-76
2022/08/14 01:44:00;;;;;;;4.95;4.20;;;;;;;;;;5044159;28;20218;-75
2022/08/14 01:46:33;;;;;;;3.83;3.53;;;;;;;;;;5067318;28;20260;-75
2022/08/14 01:49:02;;;;;;;7.47;4.28;;;;;;;;;;5071403;28;20218;-75
2022/08/14 01:51:33;;;;;;;4.57;4.18;;;;;;;;;;5070686;28;20230;-75
2022/08/14 01:54:00;;;;;;;4.50;4.20;;;;;;;;;;5052874;28;20223;-75
2022/08/14 01:56:37;;;;;;;4.57;4.07;;;;;;;;;;5041367;28;20214;-75
2022/08/14 01:59:04;;;;;;;4.55;4.15;;;;;;;;;;5071515;28;20246;-75
2022/08/14 02:01:30;;;;;;;4.32;3.97;;;;;;;;;;5056951;28;20225;-76
2022/08/14 02:03:57;;;;;;;4.80;4.35;;;;;;;;;;5060629;28;20218;-74
2022/08/14 02:06:25;;;;;;;4.85;4.43;;;;;;;;;;5040529;28;20225;-74
2022/08/14 02:08:51;;;;;;;4.30;3.90;;;;;;;;;;5074302;28;20224;-74
2022/08/14 02:11:26;;;;;;;4.80;4.25;;;;;;;;;;5033002;28;20245;-75
2022/08/14 02:13:59;;;;;;;5.10;4.50;;;;;;;;;;5067530;28;20659;-75
2022/08/14 02:16:26;;;;;;;5.22;4.70;;;;;;;;;;5059467;28;20303;-74
2022/08/14 02:18:56;;;;;;;5.45;4.57;;;;;;;;;;5078812;28;20218;-74
2022/08/14 02:21:22;;;;;;;4.93;4.43;;;;;;;;;;5052936;28;20230;-74
2022/08/14 02:23:48;;;;;;;5.05;4.57;;;;;;;;;;5074152;28;20232;-74
2022/08/14 02:26:22;;;;;;;6.10;4.45;;;;;;;;;;5059875;28;20352;-75
2022/08/14 02:28:51;;;;;;;4.80;4.40;;;;;;;;;;5065108;28;20227;-74
2022/08/14 02:31:19;;;;;;;4.90;4.40;;;;;;;;;;5057404;28;20241;-73
2022/08/14 02:33:46;;;;;;;4.95;4.55;;;;;;;;;;5050365;28;20771;-74
2022/08/14 02:36:16;;;;;;;4.35;4.05;;;;;;;;;;5071113;28;20762;-75
2022/08/14 02:38:44;;;;;;;5.22;4.72;;;;;;;;;;5065419;28;20218;-75
2022/08/14 02:41:11;;;;;;;4.70;4.40;;;;;;;;;;5040427;28;20219;-75
2022/08/14 02:43:39;;;;;;;5.15;4.65;;;;;;;;;;5080638;28;20645;-74
2022/08/14 02:46:09;;;;;;;5.03;4.53;;;;;;;;;;5057264;28;20233;-75
2022/08/14 02:48:44;;;;;;;5.05;4.53;;;;;;;;;;5072196;28;20718;-74
2022/08/14 02:51:11;;;;;;;7.45;4.68;;;;;;;;;;5086116;28;20225;-74
2022/08/14 02:53:44;;;;;;;5.20;4.72;;;;;;;;;;5074326;28;20206;-75
2022/08/14 02:56:13;;;;;;;4.65;4.30;;;;;;;;;;5074858;28;20226;-75
2022/08/14 02:58:41;;;;;;;4.50;4.10;;;;;;;;;;5042267;28;20218;-75
2022/08/14 03:01:09;;;;;;;4.60;4.20;;;;;;;;;;5073459;28;20222;-74
2022/08/14 03:03:37;;;;;;;4.20;3.90;;;;;;;;;;5044641;28;20238;-75
2022/08/14 03:06:06;;;;;;;5.47;4.40;;;;;;;;;;5053513;28;20236;-76
2022/08/14 03:08:36;;;;;;;4.20;3.85;;;;;;;;;;5043746;28;20225;-75
2022/08/14 03:11:06;;;;;;;4.03;3.72;;;;;;;;;;5073381;28;21029;-74
2022/08/14 03:13:41;;;;;;;3.78;3.47;;;;;;;;;;5063691;28;20638;-75
2022/08/14 03:16:13;;;;;;;3.97;3.67;;;;;;;;;;5065157;28;20222;-74
2022/08/14 03:18:44;;;;;;;3.63;3.28;;;;;;;;;;5066360;28;20268;-75
2022/08/14 03:21:12;;;;;;;3.95;3.60;;;;;;;;;;5044162;28;20218;-74
2022/08/14 03:23:39;;;;;;;5.50;3.58;;;;;;;;;;5066977;28;20324;-75
2022/08/14 03:26:08;;;;;;;3.83;3.53;;;;;;;;;;5038574;28;20264;-75
2022/08/14 03:28:40;;;;;;;3.40;3.15;;;;;;;;;;5064080;28;20225;-74
2022/08/14 03:31:10;;;;;;;3.67;3.38;;;;;;;;;;5063630;28;20396;-73
2022/08/14 03:33:39;;;;;;;4.25;3.85;;;;;;;;;;5087489;28;20218;-75
2022/08/14 03:36:15;;;;;;;3.55;3.35;;;;;;;;;;5049506;28;20879;-74
2022/08/14 03:38:49;;;;;;;3.95;3.65;;;;;;;;;;5049416;28;20727;-75
2022/08/14 03:41:16;;;;;;;4.30;3.50;;;;;;;;;;5071825;28;20283;-74
2022/08/14 03:43:53;;;;;;;3.38;3.13;;;;;;;;;;5063294;28;20250;-75
2022/08/14 03:46:19;;;;;;;5.10;3.60;;;;;;;;;;5071267;28;20225;-75
2022/08/14 03:48:44;;;;;;;3.60;3.30;;;;;;;;;;5063158;28;20262;-75
2022/08/14 03:51:12;;;;;;;4.07;3.67;;;;;;;;;;5082135;28;20226;-75
2022/08/14 03:53:42;;;;;;;4.75;3.95;;;;;;;;;;5076152;28;20222;-75
2022/08/14 03:56:11;;;;;;;3.90;3.60;;;;;;;;;;5077212;28;20239;-75
2022/08/14 03:58:44;;;;;;;7.93;3.85;;;;;;;;;;5043283;28;20214;-75
2022/08/14 04:01:13;;;;;;;3.70;3.45;;;;;;;;;;5072016;28;20275;-74
2022/08/14 04:03:39;;;;;;;3.83;3.53;;;;;;;;;;5068571;28;20229;-75
2022/08/14 04:06:07;;;;;;;4.43;3.92;;;;;;;;;;5060175;28;20692;-74
2022/08/14 04:08:39;;;;;;;5.95;3.83;;;;;;;;;;5069057;28;20778;-75
2022/08/14 04:11:08;;;;;;;4.43;4.03;;;;;;;;;;5052112;28;20237;-75
2022/08/14 04:13:37;;;;;;;4.82;4.13;;;;;;;;;;5062771;28;20229;-74
2022/08/14 04:16:09;;;;;;;3.80;3.50;;;;;;;;;;5073484;28;20231;-75
2022/08/14 04:18:43;;;;;;;8.93;3.50;;;;;;;;;;5061594;28;20227;-74
2022/08/14 04:21:11;;;;;;;4.50;4.10;;;;;;;;;;5078035;28;20648;-74
2022/08/14 04:23:37;;;;;;;3.90;3.60;;;;;;;;;;5028645;28;20221;-75
2022/08/14 04:26:04;;;;;;;3.63;3.42;;;;;;;;;;5067592;28;20269;-75
2022/08/14 04:28:35;;;;;;;4.57;3.95;;;;;;;;;;5062169;28;20362;-75
2022/08/14 04:31:04;;;;;;;3.88;3.63;;;;;;;;;;5046709;28;20248;-75
2022/08/14 04:33:31;;;;;;;4.28;3.85;;;;;;;;;;5051681;28;20222;-75
2022/08/14 04:35:57;;;;;;;4.63;3.67;;;;;;;;;;5058164;28;20341;-76
2022/08/14 04:43:54;;;;;;;6.32;4.18;;;;;;;;;;5073950;28;20224;-75
2022/08/14 04:46:22;;;;;;;3.90;3.55;;;;;;;;;;5077814;28;20266;-75
2022/08/14 04:48:50;;;;;;;4.22;3.83;;;;;;;;;;5074508;28;21021;-75
2022/08/14 04:51:19;;;;;;;3.90;3.60;;;;;;;;;;5078539;28;20249;-75
2022/08/14 04:53:50;;;;;;;4.70;3.60;;;;;;;;;;5049785;28;20234;-75
2022/08/14 04:56:21;;;;;;;4.15;3.85;;;;;;;;;;5047575;28;20283;-75
2022/08/14 04:58:54;;;;;;;8.85;3.58;;;;;;;;;;5060423;28;20238;-75
2022/08/14 05:01:23;;;;;;;4.10;3.72;;;;;;;;;;5051684;28;20317;-75
2022/08/14 05:03:49;;;;;;;4.35;3.70;;;;;;;;;;5065065;28;20264;-75
2022/08/14 05:06:14;;;;;;;4.38;3.60;;;;;;;;;;5067283;28;20230;-75
2022/08/14 05:08:42;;;;;;;3.92;3.17;;;;;;;;;;5078881;28;20275;-75
2022/08/14 05:11:10;;;;;;;3.75;3.45;;;;;;;;;;5044590;28;20739;-74
2022/08/14 05:13:36;;;;;;;4.63;3.65;;;;;;;;;;5061517;28;20592;-75
2022/08/14 05:16:04;;;;;;;3.70;3.40;;;;;;;;;;5060530;28;20237;-76
2022/08/14 05:18:34;;;;;;;3.88;3.47;;;;;;;;;;5067520;28;20300;-75
2022/08/14 05:21:01;;;;;;;4.88;3.30;;;;;;;;;;5063526;28;20306;-75
2022/08/14 05:23:31;;;;;;;3.22;2.92;;;;;;;;;;5057102;28;20667;-75
2022/08/14 05:26:00;;;;;;;3.88;3.38;;;;;;;;;;5045358;28;20222;-75
2022/08/14 05:28:27;;;;;;;3.60;3.30;;;;;;;;;;5067199;28;20280;-75
2022/08/14 05:30:54;;;;;;;3.65;3.30;;;;;;;;;;5045233;28;20226;-75
2022/08/14 05:33:21;;;;;;;3.38;3.08;;;;;;;;;;5066600;28;20228;-75
2022/08/14 05:35:47;;;;;;;3.03;2.83;;;;;;;;;;5078004;28;20215;-75
2022/08/14 05:38:16;;;;;;;3.20;3.00;;;;;;;;;;5062084;28;20230;-75
2022/08/14 05:40:45;;;;;;;3.97;2.95;;;;;;;;;;5063657;28;20298;-76
2022/08/14 05:43:11;;;;;;;3.45;3.15;;;;;;;;;;5055738;28;20825;-75
2022/08/14 05:45:39;;;;;;;3.28;3.08;;;;;;;;;;5061118;28;20230;-75
2022/08/14 05:48:05;;;;;;;3.47;3.17;;;;;;;;;;5062612;28;20218;-75
2022/08/14 05:50:33;;;;;;;3.40;3.20;;;;;;;;;;5068112;28;20233;-76
2022/08/14 05:53:00;;;;;;;4.47;3.20;;;;;;;;;;5079465;28;20379;-75
2022/08/14 05:55:28;;;;;;;4.20;3.78;;;;;;;;;;5064713;28;20218;-76
2022/08/14 05:57:57;;;;;;;4.07;3.13;;;;;;;;;;5065474;28;20211;-74
2022/08/14 06:00:24;;;;;;;3.70;3.40;;;;;;;;;;5041121;28;20230;-75
2022/08/14 06:02:52;;;;;;;3.47;3.20;;;;;;;;;;5066733;28;20222;-76
2022/08/14 06:05:17;;;;;;;4.00;3.58;;;;;;;;;;5059426;28;20226;-76
2022/08/14 06:07:43;;;;;;;5.10;3.35;;;;;;;;;;5061827;28;20235;-74
2022/08/14 06:10:09;;;;;;;3.92;3.20;;;;;;;;;;5077653;28;20231;-74
2022/08/14 06:12:37;;;;;;;3.85;3.40;;;;;;;;;;5058042;28;20214;-74
2022/08/14 06:15:06;;;;;;;3.63;3.42;;;;;;;;;;5074097;28;20223;-75
2022/08/14 06:17:54;;;;;;;4.60;3.45;;;;;;;;;;5046143;28;20218;-74
2022/08/14 06:20:23;;;;;;;3.35;3.08;;;;;;;;;;5054167;28;20266;-74
2022/08/14 06:22:49;;;;;;;3.42;3.13;;;;;;;;;;5055710;28;20272;-74
2022/08/14 06:25:14;;;;;;;4.38;3.13;;;;;;;;;;5052673;28;20226;-75
2022/08/14 06:27:42;;;;;;;3.10;2.90;;;;;;;;;;5065490;28;20708;-75
2022/08/14 06:30:13;;;;;;;4.40;3.30;;;;;;;;;;5060002;28;20284;-75
2022/08/14 06:32:38;;;;;;;3.65;3.35;;;;;;;;;;5061326;28;20605;-75
2022/08/14 06:35:06;;;;;;;5.85;3.50;;;;;;;;;;5043829;28;20218;-74
2022/08/14 06:37:45;;;;;;;4.55;3.10;;;;;;;;;;5072364;28;20214;-74
2022/08/14 06:40:16;;;;;;;5.65;3.10;;;;;;;;;;5065079;28;20211;-75
2022/08/14 06:42:42;;;;;;;3.38;3.10;;;;;;;;;;5065857;28;20241;-74
2022/08/14 06:45:10;;;;;;;3.67;3.20;;;;;;;;;;5078647;28;20668;-75
2022/08/14 06:47:39;;;;;;;3.58;3.28;;;;;;;;;;5065286;28;20225;-75
2022/08/14 06:50:12;;;;;;;3.83;3.05;;;;;;;;;;5073013;28;20643;-75
2022/08/14 06:52:38;;;;;;;3.75;3.35;;;;;;;;;;5059156;28;20303;-75
2022/08/14 06:55:07;;;;;;;3.45;3.05;;;;;;;;;;5072656;28;20692;-75
2022/08/14 06:57:44;;;;;;;3.22;2.80;;;;;;;;;;5031854;28;20230;-75
2022/08/14 07:00:15;;;;;;;3.30;3.00;;;;;;;;;;5047565;28;20215;-74
2022/08/14 07:08:28;;;;;;;3.80;3.38;;;;;;;;;;5068614;28;20237;-75
2022/08/14 07:10:55;;;;;;;2.92;2.72;;;;;;;;;;5074063;28;20222;-75
2022/08/14 07:13:21;;;;;;;3.58;3.28;;;;;;;;;;5063722;28;20225;-75
2022/08/14 07:15:50;;;;;;;3.25;2.85;;;;;;;;;;5072573;28;20214;-75
2022/08/14 07:18:26;;;;;;;3.42;3.05;;;;;;;;;;5046723;28;20242;-75
2022/08/14 07:20:52;;;;;;;6.28;3.08;;;;;;;;;;5068977;28;20240;-75
2022/08/14 07:23:20;;;;;;;3.08;2.88;;;;;;;;;;5057349;28;20411;-75
2022/08/14 07:25:45;;;;;;;7.47;2.92;;;;;;;;;;5050594;28;20210;-75
2022/08/14 07:28:25;;;;;;;4.32;3.03;;;;;;;;;;5048259;28;20290;-75
2022/08/14 07:30:56;;;;;;;3.47;3.20;;;;;;;;;;5046714;28;20688;-76
2022/08/14 07:33:25;;;;;;;3.45;3.08;;;;;;;;;;5043815;28;20226;-75
2022/08/14 07:35:52;;;;;;;4.80;3.13;;;;;;;;;;5030740;28;20711;-75
2022/08/14 07:38:19;;;;;;;3.60;3.30;;;;;;;;;;5026416;28;20233;-75
2022/08/14 07:40:45;;;;;;;3.42;3.13;;;;;;;;;;5077123;28;20245;-75
2022/08/14 07:43:12;;;;;;;2.92;2.72;;;;;;;;;;5061088;28;20364;-76
2022/08/14 07:45:39;;;;;;;4.38;3.10;;;;;;;;;;5066339;28;20310;-75
2022/08/14 07:48:07;;;;;;;3.58;3.20;;;;;;;;;;5045488;28;20218;-75
2022/08/14 07:50:35;;;;;;;3.40;3.10;;;;;;;;;;5034543;28;20225;-74
2022/08/14 07:53:00;;;;;;;4.75;3.10;;;;;;;;;;5045001;28;20281;-75
2022/08/14 07:55:27;;;;;;;7.82;3.17;;;;;;;;;;5072079;28;20229;-74
2022/08/14 07:57:55;;;;;;;6.35;2.90;;;;;;;;;;5058962;28;20214;-73
2022/08/14 08:00:23;;;;;;;3.13;2.92;;;;;;;;;;5029797;28;20237;-74
2022/08/14 08:02:51;;;;;;;3.65;3.10;;;;;;;;;;5068353;28;20211;-74
2022/08/14 08:05:19;;;;;;;3.65;3.15;;;;;;;;;;5046046;28;20226;-75
2022/08/14 08:07:45;;;;;;;4.70;3.00;;;;;;;;;;5063610;28;20221;-75
2022/08/14 08:13:07;;;;;;;3.78;3.13;;;;;;;;;;5073197;28;20322;-75
2022/08/14 08:15:35;;;;;;;4.65;2.97;;;;;;;;;;5059665;28;20703;-75
2022/08/14 08:18:03;;;;;;;5.93;2.97;;;;;;;;;;5069040;28;20786;-74
2022/08/14 08:20:32;;;;;;;4.03;3.00;;;;;;;;;;5052194;28;20434;-76
2022/08/14 08:22:58;;;;;;;5.22;3.25;;;;;;;;;;5060511;28;20566;-75
2022/08/14 08:25:28;;;;;;;3.40;3.20;;;;;;;;;;5058375;28;20260;-75
2022/08/14 08:28:14;;;;;;;3.55;3.15;;;;;;;;;;5046424;28;20242;-75
2022/08/14 08:30:46;;;;;;;3.50;3.15;;;;;;;;;;5074546;28;20226;-74
2022/08/14 08:33:16;;;;;;;3.28;3.00;;;;;;;;;;5067569;28;20223;-75
2022/08/14 08:35:44;;;;;;;4.45;3.00;;;;;;;;;;5074799;28;20292;-76
2022/08/14 08:38:11;;;;;;;3.00;2.75;;;;;;;;;;5029057;28;20643;-76
2022/08/14 08:40:41;;;;;;;3.80;3.10;;;;;;;;;;5052475;28;20226;-76
2022/08/14 08:43:18;;;;;;;4.28;3.30;;;;;;;;;;5057244;28;20280;-76
2022/08/14 08:45:57;;;;;;;5.32;3.95;;;;;;;;;;5064081;28;20963;-75
2022/08/14 08:48:29;;;;;;;4.15;3.50;;;;;;;;;;5077445;28;20795;-75
2022/08/14 08:50:59;;;;;;;8.77;4.05;;;;;;;;;;5062093;28;20256;-75
2022/08/14 08:53:34;;;;;;;4.00;3.70;;;;;;;;;;5042968;28;20218;-75
2022/08/14 08:56:03;;;;;;;4.25;3.95;;;;;;;;;;5052124;28;20626;-76
2022/08/14 08:58:29;;;;;;;5.65;4.22;;;;;;;;;;5052673;28;20254;-75
2022/08/14 09:00:59;;;;;;;4.60;4.28;;;;;;;;;;5040123;28;20248;-74
2022/08/14 09:03:27;;;;;;;4.20;3.90;;;;;;;;;;5033303;28;20215;-76
2022/08/14 09:05:56;;;;;;;4.88;4.20;;;;;;;;;;5063835;28;20222;-76
2022/08/14 09:08:25;;;;;;;4.68;4.22;;;;;;;;;;5064990;28;21195;-77
2022/08/14 09:10:56;;;;;;;4.95;4.35;;;;;;;;;;5068475;28;20374;-76
2022/08/14 09:13:24;;;;;;;4.93;3.97;;;;;;;;;;5047328;28;20283;-75
2022/08/14 09:15:51;;;;;;;4.40;4.00;;;;;;;;;;5073631;28;20661;-77
2022/08/14 09:18:20;;;;;;;4.47;4.07;;;;;;;;;;5049942;28;20248;-77
2022/08/14 09:20:48;;;;;;;4.45;4.05;;;;;;;;;;5044525;28;20298;-74
2022/08/14 09:23:13;;;;;;;4.72;4.30;;;;;;;;;;5033170;28;20250;-75
2022/08/14 09:25:43;;;;;;;4.80;4.10;;;;;;;;;;5049348;28;20691;-74
2022/08/14 09:28:13;;;;;;;4.32;3.90;;;;;;;;;;5048551;28;20564;-77
2022/08/14 09:30:41;;;;;;;4.55;4.18;;;;;;;;;;5059303;28;20673;-77
2022/08/14 09:33:55;;;;;;;4.80;4.40;;;;;;;;;;5057577;28;20225;-77
2022/08/14 09:36:25;;;;;;;5.15;4.13;;;;;;;;;;5074857;28;20253;-77
2022/08/14 09:38:56;;;;;;;4.57;4.18;;;;;;;;;;5071931;28;20275;-76
2022/08/14 09:41:31;;;;;;;5.45;4.25;;;;;;;;;;5056601;28;21510;-76
2022/08/14 09:43:56;;;;;;;4.18;3.88;;;;;;;;;;5066112;28;20230;-76
2022/08/14 09:46:26;;;;;;;4.47;4.05;;;;;;;;;;5075555;28;20223;-76
2022/08/14 09:49:05;;;;;;;4.57;4.20;;;;;;;;;;5066936;28;20691;-77
2022/08/14 09:51:33;;;;;;;5.13;4.63;;;;;;;;;;5050433;28;20234;-77
2022/08/14 09:54:05;;;;;;;4.93;4.53;;;;;;;;;;5029612;28;20233;-77
2022/08/14 09:56:48;;;;;;;4.78;4.38;;;;;;;;;;5056313;28;20218;-78
2022/08/14 09:59:20;;;;;;;4.88;4.47;;;;;;;;;;5048247;28;20607;-77
2022/08/14 10:01:49;;;;;;;4.78;4.20;;;;;;;;;;5059890;28;20214;-77
2022/08/14 10:04:23;;;;;;;6.38;4.22;;;;;;;;;;5056718;28;20292;-75
2022/08/14 10:06:51;;;;;;;4.50;4.20;;;;;;;;;;5046464;28;20237;-76
2022/08/14 10:09:17;;;;;;;4.55;4.10;;;;;;;;;;5032825;28;20226;-77
2022/08/14 10:11:53;;;;;;;4.47;4.15;;;;;;;;;;5052387;28;20264;-76
2022/08/14 10:14:20;;;;;;;4.97;4.13;;;;;;;;;;5057453;28;20225;-77
2022/08/14 10:16:55;;;;;;;5.03;4.53;;;;;;;;;;5071481;28;20278;-76
2022/08/14 10:19:27;;;;;;;6.82;4.28;;;;;;;;;;5067053;28;20229;-77
2022/08/14 10:22:10;;;;;;;4.38;4.03;;;;;;;;;;5070371;28;20229;-75
2022/08/14 10:24:38;;;;;;;4.85;4.45;;;;;;;;;;5042323;28;20748;-76
2022/08/14 10:27:22;;;;;;;4.78;4.20;;;;;;;;;;5074116;28;20701;-77
2022/08/14 10:29:59;;;;;;;4.95;4.47;;;;;;;;;;5052953;28;20231;-75
2022/08/14 10:32:27;;;;;;;4.90;4.50;;;;;;;;;;5061957;28;20737;-76
2022/08/14 10:35:06;;;;;;;4.88;4.40;;;;;;;;;;5025869;28;20256;-77
2022/08/14 10:37:46;;;;;;;4.75;4.35;;;;;;;;;;5041446;28;20225;-77
2022/08/14 10:40:13;;;;;;;4.55;4.15;;;;;;;;;;5056171;28;20301;-77
2022/08/14 10:42:45;;;;;;;5.38;4.13;;;;;;;;;;5048144;28;20216;-76
2022/08/14 10:45:52;;;;;;;5.38;4.22;;;;;;;;;;5044006;28;20218;-77
2022/08/14 10:48:18;;;;;;;4.40;4.00;;;;;;;;;;5071728;28;20240;-77
2022/08/14 10:50:50;;;;;;;6.95;4.50;;;;;;;;;;5038279;28;20222;-76
2022/08/14 10:53:27;;;;;;;6.20;4.57;;;;;;;;;;5081862;28;20227;-76
2022/08/14 10:55:59;;;;;;;4.15;3.85;;;;;;;;;;5072838;28;20206;-75
2022/08/14 10:58:28;;;;;;;4.80;4.40;;;;;;;;;;5056904;28;20240;-77
2022/08/14 11:00:59;;;;;;;13.13;5.10;;;;;;;;;;5073266;28;20675;-75
2022/08/14 11:03:36;;;;;;;4.60;4.20;;;;;;;;;;5055251;27;20267;-76
2022/08/14 11:06:15;;;;;;;5.78;5.10;;;;;;;;;;5068134;28;20312;-76
2022/08/14 11:08:45;;;;;;;5.28;4.88;;;;;;;;;;5054274;28;20226;-76
2022/08/14 11:11:14;;;;;;;6.80;4.80;;;;;;;;;;5070724;28;20609;-75
2022/08/14 11:13:45;;;;;;;7.38;4.85;;;;;;;;;;5028576;28;20267;-77
2022/08/14 11:16:14;;;;;;;9.13;5.07;;;;;;;;;;5056454;28;20214;-75
2022/08/14 11:18:45;;;;;;;8.98;5.07;;;;;;;;;;5072980;28;20210;-77
2022/08/14 11:21:17;;;;;;;5.47;4.97;;;;;;;;;;5050059;28;20296;-76
2022/08/14 11:23:44;;;;;;;5.70;5.10;;;;;;;;;;5073428;28;20221;-76
2022/08/14 11:26:11;;;;;;;5.90;5.10;;;;;;;;;;5065710;28;20313;-75
2022/08/14 11:28:40;;;;;;;5.85;5.35;;;;;;;;;;5061541;28;20749;-76
2022/08/14 11:31:12;;;;;;;5.70;4.97;;;;;;;;;;5049010;28;20223;-75
2022/08/14 11:33:41;;;;;;;4.97;4.50;;;;;;;;;;5045594;28;20238;-75
2022/08/14 11:36:08;;;;;;;5.55;5.05;;;;;;;;;;5063922;28;20222;-76
2022/08/14 11:38:41;;;;;;;6.00;5.50;;;;;;;;;;5053723;28;20256;-75
2022/08/14 11:41:07;;;;;;;5.15;4.65;;;;;;;;;;5046363;28;20946;-73
2022/08/14 11:43:46;;;;;;;5.50;5.10;;;;;;;;;;5050758;28;20680;-77
2022/08/14 11:46:12;;;;;;;5.75;5.25;;;;;;;;;;5053422;28;20222;-76
2022/08/14 11:48:45;;;;;;;5.97;5.30;;;;;;;;;;5046499;28;20254;-75
2022/08/14 11:51:17;;;;;;;6.15;5.10;;;;;;;;;;5067964;28;20256;-76
2022/08/14 11:53:45;;;;;;;5.40;4.90;;;;;;;;;;5056144;28;20253;-77
2022/08/14 11:56:12;;;;;;;5.40;5.00;;;;;;;;;;5049049;28;20778;-74
2022/08/14 11:58:38;;;;;;;5.97;4.68;;;;;;;;;;5066529;28;20294;-75
2022/08/14 12:01:09;;;;;;;5.63;5.13;;;;;;;;;;5046912;27;20712;-76
2022/08/14 12:03:39;;;;;;;5.35;4.95;;;;;;;;;;5082711;28;20590;-77
2022/08/14 12:06:14;;;;;;;5.20;4.80;;;;;;;;;;5068786;28;20214;-77
2022/08/14 12:08:42;;;;;;;5.72;5.28;;;;;;;;;;5047955;28;20218;-77
2022/08/14 12:11:14;;;;;;;5.63;5.13;;;;;;;;;;5043280;28;20230;-77
2022/08/14 12:13:41;;;;;;;6.22;5.47;;;;;;;;;;5073099;28;20238;-76
2022/08/14 12:16:11;;;;;;;5.72;5.18;;;;;;;;;;5052822;28;20216;-75
2022/08/14 12:18:41;;;;;;;5.85;5.30;;;;;;;;;;5077863;28;20222;-76
2022/08/14 12:21:16;;;;;;;5.82;5.32;;;;;;;;;;5027655;28;20226;-75
2022/08/14 12:23:44;;;;;;;6.60;5.78;;;;;;;;;;5086422;28;20226;-76
2022/08/14 12:26:21;;;;;;;6.03;5.20;;;;;;;;;;5048968;28;20624;-76
2022/08/14 12:28:50;;;;;;;5.20;4.80;;;;;;;;;;5068058;28;20307;-77
2022/08/14 12:31:19;;;;;;;5.18;4.78;;;;;;;;;;5058321;28;20230;-77
2022/08/14 12:33:56;;;;;;;5.30;4.90;;;;;;;;;;5051926;28;20257;-77
2022/08/14 12:36:23;;;;;;;5.70;5.20;;;;;;;;;;5068527;28;20222;-77
2022/08/14 12:38:54;;;;;;;5.85;5.13;;;;;;;;;;5069022;28;20214;-76
2022/08/14 12:41:22;;;;;;;4.90;4.50;;;;;;;;;;5048003;28;20252;-77
2022/08/14 12:44:00;;;;;;;5.53;4.90;;;;;;;;;;5044063;28;20225;-77
2022/08/14 12:46:27;;;;;;;5.70;5.20;;;;;;;;;;5056564;28;20695;-76
2022/08/14 12:48:53;;;;;;;5.47;4.97;;;;;;;;;;5072798;28;20940;-77
2022/08/14 12:51:20;;;;;;;5.97;4.90;;;;;;;;;;5061871;28;20221;-76
2022/08/14 12:53:49;;;;;;;5.28;4.78;;;;;;;;;;5045962;28;20245;-77
2022/08/14 12:56:20;;;;;;;4.57;4.22;;;;;;;;;;5033365;28;20214;-77
2022/08/14 12:58:49;;;;;;;5.18;4.68;;;;;;;;;;5083541;28;20214;-76
2022/08/14 13:01:21;;;;;;;4.95;4.55;;;;;;;;;;5056623;28;20231;-76
2022/08/14 13:03:47;;;;;;;5.35;4.78;;;;;;;;;;5067682;28;20223;-76
2022/08/14 13:06:18;;;;;;;4.80;4.30;;;;;;;;;;5048516;28;20237;-76
2022/08/14 13:08:43;;;;;;;4.50;3.90;;;;;;;;;;5033393;28;20223;-77
2022/08/14 13:11:12;;;;;;;4.35;3.95;;;;;;;;;;5049087;28;20715;-75
2022/08/14 13:13:43;;;;;;;4.40;4.00;;;;;;;;;;5060239;28;20700;-76
2022/08/14 13:16:12;;;;;;;5.15;3.80;;;;;;;;;;5034298;28;20234;-76
2022/08/14 13:18:42;;;;;;;5.25;3.92;;;;;;;;;;5060543;28;20222;-75
2022/08/14 13:21:13;;;;;;;6.10;3.90;;;;;;;;;;5055995;28;20259;-76
2022/08/14 13:23:41;;;;;;;4.53;4.10;;;;;;;;;;5043824;28;20223;-76
2022/08/14 13:26:08;;;;;;;4.50;3.83;;;;;;;;;;5066701;28;20214;-75
2022/08/14 13:28:37;;;;;;;4.45;4.07;;;;;;;;;;5060142;28;20306;-80
2022/08/14 13:31:06;;;;;;;4.00;3.70;;;;;;;;;;5050379;28;20258;-76
2022/08/14 13:33:34;;;;;;;4.65;4.10;;;;;;;;;;5042926;28;20225;-76
2022/08/14 13:36:02;;;;;;;4.15;3.85;;;;;;;;;;5062451;28;21010;-76
2022/08/14 13:38:30;;;;;;;4.25;3.85;;;;;;;;;;5067642;28;20250;-76
2022/08/14 13:41:05;;;;;;;4.55;4.10;;;;;;;;;;5044376;28;20227;-76
2022/08/14 13:43:31;;;;;;;4.53;4.15;;;;;;;;;;5053751;28;20233;-76
2022/08/14 13:45:57;;;;;;;6.38;3.90;;;;;;;;;;5042486;28;20231;-77
2022/08/14 13:48:23;;;;;;;4.28;3.88;;;;;;;;;;5040426;28;20261;-75
2022/08/14 13:50:52;;;;;;;4.50;4.10;;;;;;;;;;5049639;28;20234;-76
2022/08/14 13:53:18;;;;;;;4.90;4.40;;;;;;;;;;5053328;28;20287;-75
2022/08/14 13:55:44;;;;;;;4.35;3.95;;;;;;;;;;5048685;28;20258;-75
2022/08/14 13:58:11;;;;;;;4.40;4.00;;;;;;;;;;5028589;28;20225;-77
2022/08/14 14:00:38;;;;;;;4.93;4.50;;;;;;;;;;5042316;28;20605;-76
2022/08/14 14:03:06;;;;;;;4.53;4.15;;;;;;;;;;5045399;28;20687;-76
2022/08/14 14:05:35;;;;;;;4.28;3.88;;;;;;;;;;5045693;28;20229;-76
2022/08/14 14:08:01;;;;;;;4.60;4.20;;;;;;;;;;5043457;28;20699;-76
2022/08/14 14:10:36;;;;;;;5.95;4.20;;;;;;;;;;5033138;28;20218;-75
2022/08/14 14:13:03;;;;;;;4.60;4.20;;;;;;;;;;5064529;28;20760;-76
2022/08/14 14:15:29;;;;;;;4.15;3.85;;;;;;;;;;5035085;28;20239;-76
2022/08/14 14:17:59;;;;;;;4.47;4.07;;;;;;;;;;5039832;28;20219;-75
2022/08/14 14:20:27;;;;;;;4.63;4.10;;;;;;;;;;5046384;28;20222;-75
2022/08/14 14:22:55;;;;;;;4.70;4.22;;;;;;;;;;5072186;28;20226;-75
2022/08/14 14:25:20;;;;;;;4.93;4.53;;;;;;;;;;5077988;28;20214;-75
2022/08/14 14:27:53;;;;;;;5.65;4.32;;;;;;;;;;5072294;28;20214;-75
2022/08/14 14:30:21;;;;;;;5.78;4.80;;;;;;;;;;5054030;28;20226;-76
2022/08/14 14:32:47;;;;;;;5.07;4.43;;;;;;;;;;5065883;28;20225;-75
2022/08/14 14:35:22;;;;;;;5.28;4.82;;;;;;;;;;5044060;28;20677;-76
2022/08/14 14:37:47;;;;;;;4.50;4.20;;;;;;;;;;5057852;28;20222;-76
2022/08/14 14:40:17;;;;;;;7.10;4.45;;;;;;;;;;5042349;28;20241;-77
2022/08/14 14:42:48;;;;;;;4.75;4.22;;;;;;;;;;5059149;28;20301;-76
2022/08/14 14:45:15;;;;;;;4.88;4.38;;;;;;;;;;5041916;28;20228;-75
2022/08/14 14:47:47;;;;;;;5.55;5.00;;;;;;;;;;5051212;28;20245;-76
2022/08/14 14:50:15;;;;;;;5.30;4.80;;;;;;;;;;5027968;28;20248;-76
2022/08/14 14:52:46;;;;;;;5.38;4.65;;;;;;;;;;5061082;28;20574;-77
2022/08/14 14:55:14;;;;;;;5.25;4.75;;;;;;;;;;5057544;28;20802;-76
2022/08/14 14:57:41;;;;;;;4.78;4.38;;;;;;;;;;5071735;28;20591;-77
2022/08/14 15:00:14;;;;;;;4.90;4.50;;;;;;;;;;5054385;28;20350;-76
2022/08/14 15:02:43;;;;;;;5.50;5.10;;;;;;;;;;5033473;28;20214;-77
2022/08/14 15:05:10;;;;;;;5.30;4.80;;;;;;;;;;5045260;28;20226;-76
2022/08/14 15:07:36;;;;;;;4.95;4.55;;;;;;;;;;5065253;28;20703;-76
2022/08/14 15:10:10;;;;;;;5.97;4.47;;;;;;;;;;5078317;28;20706;-75
2022/08/14 15:12:38;;;;;;;5.43;4.50;;;;;;;;;;5043630;28;20846;-76
2022/08/14 15:15:06;;;;;;;5.35;4.85;;;;;;;;;;5050063;28;20340;-76